sensor_id;sensor_type;location;lat;lon;timestamp;P1;durP1;ratioP1;P2;durP2;ratioP2
4674;SDS011;2351;50.812;12.872;2022-08-03T00:00:39;3.30;;;3.00;;
4674;SDS011;2351;50.812;12.872;2022-08-03T00:03:10;4.97;;;4.20;;
4674;SDS011;2351;50.812;12.872;2022-08-03T00:05:42;12.20;;;6.10;;
4674;SDS011;2351;50.812;12.872;2022-08-03T00:08:14;11.27;;;7.10;;
4674;SDS011;2351;50.812;12.872;2022-08-03T00:10:45;11.17;;;6.67;;
4674;SDS011;2351;50.812;12.872;2022-08-03T00:13:18;5.93;;;5.00;;
4674;SDS011;2351;50.812;12.872;2022-08-03T00:15:50;7.70;;;3.60;;
4674;SDS011;2351;50.812;12.872;2022-08-03T00:18:22;6.30;;;3.80;;
4674;SDS011;2351;50.812;12.872;2022-08-03T00:20:53;4.00;;;3.33;;
4674;SDS011;2351;50.812;12.872;2022-08-03T00:23:25;3.97;;;3.60;;
4674;SDS011;2351;50.812;12.872;2022-08-03T00:25:56;11.60;;;4.47;;
4674;SDS011;2351;50.812;12.872;2022-08-03T00:28:29;4.80;;;3.67;;
4674;SDS011;2351;50.812;12.872;2022-08-03T00:31:01;7.90;;;5.57;;
4674;SDS011;2351;50.812;12.872;2022-08-03T00:33:33;15.23;;;9.60;;
4674;SDS011;2351;50.812;12.872;2022-08-03T00:36:04;15.07;;;7.00;;
4674;SDS011;2351;50.812;12.872;2022-08-03T00:38:36;9.73;;;4.93;;
4674;SDS011;2351;50.812;12.872;2022-08-03T00:41:07;7.73;;;4.37;;
4674;SDS011;2351;50.812;12.872;2022-08-03T00:43:40;4.57;;;3.90;;
4674;SDS011;2351;50.812;12.872;2022-08-03T00:46:12;5.00;;;4.37;;
4674;SDS011;2351;50.812;12.872;2022-08-03T00:48:44;4.40;;;4.00;;
4674;SDS011;2351;50.812;12.872;2022-08-03T00:51:15;9.90;;;4.87;;
4674;SDS011;2351;50.812;12.872;2022-08-03T00:53:48;6.87;;;5.00;;
4674;SDS011;2351;50.812;12.872;2022-08-03T00:56:19;4.33;;;3.93;;
4674;SDS011;2351;50.812;12.872;2022-08-03T00:58:52;14.23;;;4.47;;
4674;SDS011;2351;50.812;12.872;2022-08-03T01:01:27;5.43;;;4.63;;
4674;SDS011;2351;50.812;12.872;2022-08-03T01:03:59;4.90;;;3.90;;
4674;SDS011;2351;50.812;12.872;2022-08-03T01:06:32;5.77;;;4.90;;
4674;SDS011;2351;50.812;12.872;2022-08-03T01:09:12;4.57;;;4.17;;
4674;SDS011;2351;50.812;12.872;2022-08-03T01:11:54;6.70;;;5.00;;
4674;SDS011;2351;50.812;12.872;2022-08-03T01:14:37;5.67;;;4.30;;
4674;SDS011;2351;50.812;12.872;2022-08-03T01:17:12;5.47;;;4.80;;
4674;SDS011;2351;50.812;12.872;2022-08-03T01:19:49;21.70;;;5.00;;
4674;SDS011;2351;50.812;12.872;2022-08-03T01:22:44;8.13;;;5.17;;
4674;SDS011;2351;50.812;12.872;2022-08-03T01:25:33;22.13;;;5.10;;
4674;SDS011;2351;50.812;12.872;2022-08-03T01:28:21;5.30;;;4.50;;
4674;SDS011;2351;50.812;12.872;2022-08-03T01:31:05;6.53;;;5.03;;
4674;SDS011;2351;50.812;12.872;2022-08-03T01:33:39;6.43;;;4.77;;
4674;SDS011;2351;50.812;12.872;2022-08-03T01:36:13;6.30;;;4.53;;
4674;SDS011;2351;50.812;12.872;2022-08-03T01:38:50;6.50;;;5.13;;
4674;SDS011;2351;50.812;12.872;2022-08-03T01:41:27;6.40;;;5.10;;
4674;SDS011;2351;50.812;12.872;2022-08-03T01:44:01;6.07;;;4.77;;
4674;SDS011;2351;50.812;12.872;2022-08-03T01:46:37;5.90;;;4.90;;
4674;SDS011;2351;50.812;12.872;2022-08-03T01:49:10;6.33;;;4.90;;
4674;SDS011;2351;50.812;12.872;2022-08-03T01:51:44;5.93;;;4.97;;
4674;SDS011;2351;50.812;12.872;2022-08-03T01:54:17;6.50;;;4.93;;
4674;SDS011;2351;50.812;12.872;2022-08-03T01:56:50;6.80;;;4.90;;
4674;SDS011;2351;50.812;12.872;2022-08-03T01:59:24;5.50;;;4.90;;
4674;SDS011;2351;50.812;12.872;2022-08-03T02:01:58;5.33;;;4.33;;
4674;SDS011;2351;50.812;12.872;2022-08-03T02:04:30;5.30;;;4.80;;
4674;SDS011;2351;50.812;12.872;2022-08-03T02:07:02;9.93;;;4.60;;
4674;SDS011;2351;50.812;12.872;2022-08-03T02:09:34;6.53;;;4.90;;
4674;SDS011;2351;50.812;12.872;2022-08-03T02:12:09;7.87;;;4.63;;
4674;SDS011;2351;50.812;12.872;2022-08-03T02:14:42;5.60;;;4.60;;
4674;SDS011;2351;50.812;12.872;2022-08-03T02:17:18;7.43;;;5.27;;
4674;SDS011;2351;50.812;12.872;2022-08-03T02:19:50;6.17;;;5.20;;
4674;SDS011;2351;50.812;12.872;2022-08-03T02:22:23;16.83;;;4.70;;
4674;SDS011;2351;50.812;12.872;2022-08-03T02:24:55;6.80;;;5.13;;
4674;SDS011;2351;50.812;12.872;2022-08-03T02:27:27;6.47;;;4.67;;
4674;SDS011;2351;50.812;12.872;2022-08-03T02:30:04;5.27;;;4.60;;
4674;SDS011;2351;50.812;12.872;2022-08-03T02:32:39;13.47;;;4.90;;
4674;SDS011;2351;50.812;12.872;2022-08-03T02:35:12;9.13;;;5.23;;
4674;SDS011;2351;50.812;12.872;2022-08-03T02:37:48;8.90;;;5.33;;
4674;SDS011;2351;50.812;12.872;2022-08-03T02:40:22;6.40;;;5.10;;
4674;SDS011;2351;50.812;12.872;2022-08-03T02:43:01;8.17;;;5.10;;
4674;SDS011;2351;50.812;12.872;2022-08-03T02:45:40;7.03;;;5.57;;
4674;SDS011;2351;50.812;12.872;2022-08-03T02:48:16;15.83;;;4.50;;
4674;SDS011;2351;50.812;12.872;2022-08-03T02:50:52;8.73;;;4.57;;
4674;SDS011;2351;50.812;12.872;2022-08-03T02:53:26;6.13;;;4.10;;
4674;SDS011;2351;50.812;12.872;2022-08-03T02:55:59;5.27;;;4.40;;
4674;SDS011;2351;50.812;12.872;2022-08-03T02:58:34;8.27;;;5.73;;
4674;SDS011;2351;50.812;12.872;2022-08-03T03:01:07;13.50;;;5.43;;
4674;SDS011;2351;50.812;12.872;2022-08-03T03:03:41;5.00;;;4.50;;
4674;SDS011;2351;50.812;12.872;2022-08-03T03:06:14;7.53;;;4.70;;
4674;SDS011;2351;50.812;12.872;2022-08-03T03:08:47;6.10;;;3.93;;
4674;SDS011;2351;50.812;12.872;2022-08-03T03:11:19;5.83;;;4.50;;
4674;SDS011;2351;50.812;12.872;2022-08-03T03:13:52;5.20;;;4.70;;
4674;SDS011;2351;50.812;12.872;2022-08-03T03:16:27;7.00;;;5.17;;
4674;SDS011;2351;50.812;12.872;2022-08-03T03:19:01;6.70;;;4.50;;
4674;SDS011;2351;50.812;12.872;2022-08-03T03:21:33;6.43;;;4.83;;
4674;SDS011;2351;50.812;12.872;2022-08-03T03:24:07;7.30;;;5.60;;
4674;SDS011;2351;50.812;12.872;2022-08-03T03:26:40;10.43;;;5.07;;
4674;SDS011;2351;50.812;12.872;2022-08-03T03:29:13;7.00;;;5.30;;
4674;SDS011;2351;50.812;12.872;2022-08-03T03:31:45;5.87;;;4.63;;
4674;SDS011;2351;50.812;12.872;2022-08-03T03:34:19;5.93;;;4.93;;
4674;SDS011;2351;50.812;12.872;2022-08-03T03:36:51;12.50;;;5.83;;
4674;SDS011;2351;50.812;12.872;2022-08-03T03:39:22;7.97;;;5.10;;
4674;SDS011;2351;50.812;12.872;2022-08-03T03:41:54;7.10;;;5.97;;
4674;SDS011;2351;50.812;12.872;2022-08-03T03:44:26;5.63;;;4.90;;
4674;SDS011;2351;50.812;12.872;2022-08-03T03:46:58;5.10;;;4.50;;
4674;SDS011;2351;50.812;12.872;2022-08-03T03:49:31;5.43;;;4.37;;
4674;SDS011;2351;50.812;12.872;2022-08-03T03:52:03;6.43;;;5.17;;
4674;SDS011;2351;50.812;12.872;2022-08-03T03:54:39;5.10;;;4.60;;
4674;SDS011;2351;50.812;12.872;2022-08-03T03:57:11;7.13;;;4.80;;
4674;SDS011;2351;50.812;12.872;2022-08-03T03:59:43;6.17;;;4.43;;
4674;SDS011;2351;50.812;12.872;2022-08-03T04:02:14;6.13;;;4.77;;
4674;SDS011;2351;50.812;12.872;2022-08-03T04:04:47;6.63;;;4.93;;
4674;SDS011;2351;50.812;12.872;2022-08-03T04:07:38;11.73;;;6.37;;
4674;SDS011;2351;50.812;12.872;2022-08-03T04:10:34;8.30;;;5.63;;
4674;SDS011;2351;50.812;12.872;2022-08-03T04:13:28;7.40;;;4.80;;
4674;SDS011;2351;50.812;12.872;2022-08-03T04:16:01;7.87;;;5.53;;
4674;SDS011;2351;50.812;12.872;2022-08-03T04:18:34;7.87;;;5.57;;
4674;SDS011;2351;50.812;12.872;2022-08-03T04:21:10;6.43;;;4.80;;
4674;SDS011;2351;50.812;12.872;2022-08-03T04:23:44;8.27;;;4.90;;
4674;SDS011;2351;50.812;12.872;2022-08-03T04:26:20;7.40;;;5.60;;
4674;SDS011;2351;50.812;12.872;2022-08-03T04:28:53;6.90;;;5.63;;
4674;SDS011;2351;50.812;12.872;2022-08-03T04:31:25;7.10;;;5.80;;
4674;SDS011;2351;50.812;12.872;2022-08-03T04:33:58;9.17;;;5.07;;
4674;SDS011;2351;50.812;12.872;2022-08-03T04:36:32;7.70;;;5.50;;
4674;SDS011;2351;50.812;12.872;2022-08-03T04:39:12;6.83;;;5.27;;
4674;SDS011;2351;50.812;12.872;2022-08-03T04:41:46;10.10;;;5.37;;
4674;SDS011;2351;50.812;12.872;2022-08-03T04:44:20;5.87;;;5.13;;
4674;SDS011;2351;50.812;12.872;2022-08-03T04:46:53;12.83;;;6.07;;
4674;SDS011;2351;50.812;12.872;2022-08-03T04:49:26;8.07;;;5.27;;
4674;SDS011;2351;50.812;12.872;2022-08-03T04:52:01;9.10;;;5.70;;
4674;SDS011;2351;50.812;12.872;2022-08-03T04:54:38;7.37;;;5.43;;
4674;SDS011;2351;50.812;12.872;2022-08-03T04:57:10;6.80;;;5.80;;
4674;SDS011;2351;50.812;12.872;2022-08-03T04:59:42;8.30;;;6.17;;
4674;SDS011;2351;50.812;12.872;2022-08-03T05:02:14;7.53;;;5.70;;
4674;SDS011;2351;50.812;12.872;2022-08-03T05:04:45;6.47;;;5.60;;
4674;SDS011;2351;50.812;12.872;2022-08-03T05:07:19;8.93;;;6.17;;
4674;SDS011;2351;50.812;12.872;2022-08-03T05:09:50;8.13;;;5.13;;
4674;SDS011;2351;50.812;12.872;2022-08-03T05:12:22;8.63;;;5.90;;
4674;SDS011;2351;50.812;12.872;2022-08-03T05:14:54;7.90;;;5.60;;
4674;SDS011;2351;50.812;12.872;2022-08-03T05:17:25;5.90;;;5.27;;
4674;SDS011;2351;50.812;12.872;2022-08-03T05:19:58;6.50;;;5.17;;
4674;SDS011;2351;50.812;12.872;2022-08-03T05:22:31;7.47;;;5.50;;
4674;SDS011;2351;50.812;12.872;2022-08-03T05:25:03;12.70;;;5.80;;
4674;SDS011;2351;50.812;12.872;2022-08-03T05:27:35;7.60;;;5.53;;
4674;SDS011;2351;50.812;12.872;2022-08-03T05:30:07;5.90;;;5.13;;
4674;SDS011;2351;50.812;12.872;2022-08-03T05:32:39;8.83;;;6.20;;
4674;SDS011;2351;50.812;12.872;2022-08-03T05:35:11;9.40;;;5.03;;
4674;SDS011;2351;50.812;12.872;2022-08-03T05:37:44;18.80;;;4.67;;
4674;SDS011;2351;50.812;12.872;2022-08-03T05:40:15;7.90;;;5.20;;
4674;SDS011;2351;50.812;12.872;2022-08-03T05:42:47;7.10;;;4.97;;
4674;SDS011;2351;50.812;12.872;2022-08-03T05:45:18;8.10;;;5.20;;
4674;SDS011;2351;50.812;12.872;2022-08-03T05:47:50;6.07;;;5.40;;
4674;SDS011;2351;50.812;12.872;2022-08-03T05:50:22;6.80;;;5.13;;
4674;SDS011;2351;50.812;12.872;2022-08-03T05:52:55;5.80;;;4.90;;
4674;SDS011;2351;50.812;12.872;2022-08-03T05:55:27;6.70;;;4.37;;
4674;SDS011;2351;50.812;12.872;2022-08-03T05:57:59;4.57;;;3.97;;
4674;SDS011;2351;50.812;12.872;2022-08-03T06:00:32;5.87;;;4.03;;
4674;SDS011;2351;50.812;12.872;2022-08-03T06:03:04;5.63;;;4.23;;
4674;SDS011;2351;50.812;12.872;2022-08-03T06:05:35;5.67;;;3.70;;
4674;SDS011;2351;50.812;12.872;2022-08-03T06:08:09;4.67;;;3.97;;
4674;SDS011;2351;50.812;12.872;2022-08-03T06:10:40;5.37;;;4.00;;
4674;SDS011;2351;50.812;12.872;2022-08-03T06:13:12;9.43;;;4.33;;
4674;SDS011;2351;50.812;12.872;2022-08-03T06:15:43;4.43;;;4.03;;
4674;SDS011;2351;50.812;12.872;2022-08-03T06:18:15;3.50;;;3.20;;
4674;SDS011;2351;50.812;12.872;2022-08-03T06:20:46;8.63;;;4.10;;
4674;SDS011;2351;50.812;12.872;2022-08-03T06:23:19;3.70;;;3.40;;
4674;SDS011;2351;50.812;12.872;2022-08-03T06:25:51;5.00;;;3.90;;
4674;SDS011;2351;50.812;12.872;2022-08-03T06:28:22;8.63;;;3.90;;
4674;SDS011;2351;50.812;12.872;2022-08-03T06:30:54;14.53;;;3.57;;
4674;SDS011;2351;50.812;12.872;2022-08-03T06:33:26;4.17;;;3.57;;
4674;SDS011;2351;50.812;12.872;2022-08-03T06:35:57;4.43;;;3.70;;
4674;SDS011;2351;50.812;12.872;2022-08-03T06:38:30;9.73;;;3.83;;
4674;SDS011;2351;50.812;12.872;2022-08-03T06:41:02;3.60;;;3.30;;
4674;SDS011;2351;50.812;12.872;2022-08-03T06:43:34;4.43;;;2.93;;
4674;SDS011;2351;50.812;12.872;2022-08-03T06:46:06;3.43;;;3.07;;
4674;SDS011;2351;50.812;12.872;2022-08-03T06:48:38;14.00;;;4.10;;
4674;SDS011;2351;50.812;12.872;2022-08-03T06:51:09;8.77;;;3.80;;
4674;SDS011;2351;50.812;12.872;2022-08-03T06:53:42;11.33;;;3.70;;
4674;SDS011;2351;50.812;12.872;2022-08-03T06:56:14;6.33;;;3.90;;
4674;SDS011;2351;50.812;12.872;2022-08-03T06:58:46;5.07;;;3.17;;
4674;SDS011;2351;50.812;12.872;2022-08-03T07:01:17;4.93;;;3.47;;
4674;SDS011;2351;50.812;12.872;2022-08-03T07:03:49;7.90;;;2.70;;
4674;SDS011;2351;50.812;12.872;2022-08-03T07:06:21;4.67;;;3.17;;
4674;SDS011;2351;50.812;12.872;2022-08-03T07:08:54;5.00;;;3.10;;
4674;SDS011;2351;50.812;12.872;2022-08-03T07:11:25;9.10;;;3.10;;
4674;SDS011;2351;50.812;12.872;2022-08-03T07:13:57;3.00;;;2.57;;
4674;SDS011;2351;50.812;12.872;2022-08-03T07:16:29;2.60;;;2.40;;
4674;SDS011;2351;50.812;12.872;2022-08-03T07:19:00;2.93;;;2.63;;
4674;SDS011;2351;50.812;12.872;2022-08-03T07:21:32;2.70;;;2.50;;
4674;SDS011;2351;50.812;12.872;2022-08-03T07:24:05;2.60;;;2.40;;
4674;SDS011;2351;50.812;12.872;2022-08-03T07:26:37;4.03;;;2.20;;
4674;SDS011;2351;50.812;12.872;2022-08-03T07:29:08;3.00;;;2.37;;
4674;SDS011;2351;50.812;12.872;2022-08-03T07:31:40;2.37;;;2.17;;
4674;SDS011;2351;50.812;12.872;2022-08-03T07:34:12;6.50;;;2.40;;
4674;SDS011;2351;50.812;12.872;2022-08-03T07:36:43;2.50;;;2.30;;
4674;SDS011;2351;50.812;12.872;2022-08-03T07:39:16;3.43;;;2.23;;
4674;SDS011;2351;50.812;12.872;2022-08-03T07:41:48;3.43;;;2.40;;
4674;SDS011;2351;50.812;12.872;2022-08-03T07:44:20;1.83;;;1.73;;
4674;SDS011;2351;50.812;12.872;2022-08-03T07:46:52;2.50;;;2.07;;
4674;SDS011;2351;50.812;12.872;2022-08-03T07:49:23;3.93;;;2.40;;
4674;SDS011;2351;50.812;12.872;2022-08-03T07:51:55;4.33;;;1.90;;
4674;SDS011;2351;50.812;12.872;2022-08-03T07:54:45;2.33;;;2.10;;
4674;SDS011;2351;50.812;12.872;2022-08-03T07:57:17;2.13;;;1.93;;
4674;SDS011;2351;50.812;12.872;2022-08-03T07:59:48;1.97;;;1.87;;
4674;SDS011;2351;50.812;12.872;2022-08-03T08:02:20;2.50;;;2.30;;
4674;SDS011;2351;50.812;12.872;2022-08-03T08:04:51;1.70;;;1.60;;
4674;SDS011;2351;50.812;12.872;2022-08-03T08:07:23;1.77;;;1.67;;
4674;SDS011;2351;50.812;12.872;2022-08-03T08:09:56;1.40;;;1.30;;
4674;SDS011;2351;50.812;12.872;2022-08-03T08:12:28;3.17;;;1.57;;
4674;SDS011;2351;50.812;12.872;2022-08-03T08:14:59;1.90;;;1.77;;
4674;SDS011;2351;50.812;12.872;2022-08-03T08:17:39;2.07;;;1.97;;
4674;SDS011;2351;50.812;12.872;2022-08-03T08:20:14;1.80;;;1.70;;
4674;SDS011;2351;50.812;12.872;2022-08-03T08:22:47;2.37;;;2.17;;
4674;SDS011;2351;50.812;12.872;2022-08-03T08:25:20;2.50;;;2.30;;
4674;SDS011;2351;50.812;12.872;2022-08-03T08:27:52;2.93;;;2.10;;
4674;SDS011;2351;50.812;12.872;2022-08-03T08:30:24;4.23;;;2.30;;
4674;SDS011;2351;50.812;12.872;2022-08-03T08:32:55;2.53;;;2.30;;
4674;SDS011;2351;50.812;12.872;2022-08-03T08:35:27;2.20;;;2.00;;
4674;SDS011;2351;50.812;12.872;2022-08-03T08:37:59;2.00;;;1.80;;
4674;SDS011;2351;50.812;12.872;2022-08-03T08:40:32;4.90;;;1.73;;
4674;SDS011;2351;50.812;12.872;2022-08-03T08:43:04;2.07;;;1.97;;
4674;SDS011;2351;50.812;12.872;2022-08-03T08:45:35;2.40;;;2.20;;
4674;SDS011;2351;50.812;12.872;2022-08-03T08:48:08;2.13;;;2.03;;
4674;SDS011;2351;50.812;12.872;2022-08-03T08:50:41;1.80;;;1.70;;
4674;SDS011;2351;50.812;12.872;2022-08-03T08:53:14;2.10;;;2.00;;
4674;SDS011;2351;50.812;12.872;2022-08-03T08:55:48;2.10;;;1.90;;
4674;SDS011;2351;50.812;12.872;2022-08-03T08:58:20;3.13;;;1.90;;
4674;SDS011;2351;50.812;12.872;2022-08-03T09:00:53;6.13;;;2.60;;
4674;SDS011;2351;50.812;12.872;2022-08-03T09:03:24;1.83;;;1.73;;
4674;SDS011;2351;50.812;12.872;2022-08-03T09:05:57;4.47;;;1.53;;
4674;SDS011;2351;50.812;12.872;2022-08-03T09:08:31;11.73;;;2.23;;
4674;SDS011;2351;50.812;12.872;2022-08-03T09:11:04;4.40;;;2.13;;
4674;SDS011;2351;50.812;12.872;2022-08-03T09:13:36;1.63;;;1.50;;
4674;SDS011;2351;50.812;12.872;2022-08-03T09:16:08;2.03;;;1.60;;
4674;SDS011;2351;50.812;12.872;2022-08-03T09:18:42;2.63;;;1.90;;
4674;SDS011;2351;50.812;12.872;2022-08-03T09:21:17;1.90;;;1.80;;
4674;SDS011;2351;50.812;12.872;2022-08-03T09:23:51;1.73;;;1.63;;
4674;SDS011;2351;50.812;12.872;2022-08-03T09:26:26;2.03;;;1.80;;
4674;SDS011;2351;50.812;12.872;2022-08-03T09:29:01;4.60;;;2.37;;
4674;SDS011;2351;50.812;12.872;2022-08-03T09:31:35;2.00;;;1.90;;
4674;SDS011;2351;50.812;12.872;2022-08-03T09:34:09;3.87;;;2.47;;
4674;SDS011;2351;50.812;12.872;2022-08-03T09:36:42;1.73;;;1.63;;
4674;SDS011;2351;50.812;12.872;2022-08-03T09:39:16;2.70;;;1.80;;
4674;SDS011;2351;50.812;12.872;2022-08-03T09:42:03;1.57;;;1.40;;
4674;SDS011;2351;50.812;12.872;2022-08-03T09:44:36;4.43;;;2.20;;
4674;SDS011;2351;50.812;12.872;2022-08-03T09:47:11;2.37;;;2.17;;
4674;SDS011;2351;50.812;12.872;2022-08-03T09:49:55;1.90;;;1.80;;
4674;SDS011;2351;50.812;12.872;2022-08-03T09:52:31;1.70;;;1.60;;
4674;SDS011;2351;50.812;12.872;2022-08-03T09:55:06;2.00;;;1.90;;
4674;SDS011;2351;50.812;12.872;2022-08-03T09:57:40;5.83;;;1.80;;
4674;SDS011;2351;50.812;12.872;2022-08-03T10:00:15;2.30;;;2.10;;
4674;SDS011;2351;50.812;12.872;2022-08-03T10:02:47;1.80;;;1.57;;
4674;SDS011;2351;50.812;12.872;2022-08-03T10:05:19;1.80;;;1.70;;
4674;SDS011;2351;50.812;12.872;2022-08-03T10:08:09;1.33;;;1.30;;
4674;SDS011;2351;50.812;12.872;2022-08-03T10:10:45;1.43;;;1.30;;
4674;SDS011;2351;50.812;12.872;2022-08-03T10:13:20;1.47;;;1.37;;
4674;SDS011;2351;50.812;12.872;2022-08-03T10:15:52;1.70;;;1.60;;
4674;SDS011;2351;50.812;12.872;2022-08-03T10:18:24;2.10;;;1.90;;
4674;SDS011;2351;50.812;12.872;2022-08-03T10:20:57;1.50;;;1.40;;
4674;SDS011;2351;50.812;12.872;2022-08-03T10:23:33;1.80;;;1.70;;
4674;SDS011;2351;50.812;12.872;2022-08-03T10:26:08;1.37;;;1.37;;
4674;SDS011;2351;50.812;12.872;2022-08-03T10:28:45;1.50;;;1.40;;
4674;SDS011;2351;50.812;12.872;2022-08-03T10:31:20;1.57;;;1.47;;
4674;SDS011;2351;50.812;12.872;2022-08-03T10:33:54;1.50;;;1.40;;
4674;SDS011;2351;50.812;12.872;2022-08-03T10:36:29;2.00;;;1.50;;
4674;SDS011;2351;50.812;12.872;2022-08-03T10:39:03;2.10;;;1.33;;
4674;SDS011;2351;50.812;12.872;2022-08-03T10:41:36;3.60;;;1.77;;
4674;SDS011;2351;50.812;12.872;2022-08-03T10:44:14;3.63;;;1.67;;
4674;SDS011;2351;50.812;12.872;2022-08-03T10:46:49;1.73;;;1.63;;
4674;SDS011;2351;50.812;12.872;2022-08-03T10:49:21;1.47;;;1.40;;
4674;SDS011;2351;50.812;12.872;2022-08-03T10:51:54;1.30;;;1.30;;
4674;SDS011;2351;50.812;12.872;2022-08-03T10:54:37;1.30;;;1.23;;
4674;SDS011;2351;50.812;12.872;2022-08-03T10:57:41;2.20;;;2.00;;
4674;SDS011;2351;50.812;12.872;2022-08-03T11:00:24;2.07;;;1.47;;
4674;SDS011;2351;50.812;12.872;2022-08-03T11:03:04;1.40;;;1.30;;
4674;SDS011;2351;50.812;12.872;2022-08-03T11:05:39;1.87;;;1.60;;
4674;SDS011;2351;50.812;12.872;2022-08-03T11:08:19;2.70;;;1.80;;
4674;SDS011;2351;50.812;12.872;2022-08-03T11:10:53;1.40;;;1.30;;
4674;SDS011;2351;50.812;12.872;2022-08-03T11:13:27;1.03;;;1.03;;
4674;SDS011;2351;50.812;12.872;2022-08-03T11:16:17;1.63;;;1.53;;
4674;SDS011;2351;50.812;12.872;2022-08-03T11:18:55;1.50;;;1.40;;
4674;SDS011;2351;50.812;12.872;2022-08-03T11:27:29;2.03;;;1.80;;
4674;SDS011;2351;50.812;12.872;2022-08-03T11:30:03;5.57;;;2.30;;
4674;SDS011;2351;50.812;12.872;2022-08-03T11:35:31;1.60;;;1.50;;
4674;SDS011;2351;50.812;12.872;2022-08-03T11:38:05;2.80;;;1.37;;
4674;SDS011;2351;50.812;12.872;2022-08-03T11:40:40;1.80;;;1.70;;
4674;SDS011;2351;50.812;12.872;2022-08-03T11:46:15;1.57;;;1.47;;
4674;SDS011;2351;50.812;12.872;2022-08-03T11:48:51;1.50;;;1.40;;
4674;SDS011;2351;50.812;12.872;2022-08-03T11:51:28;1.30;;;1.30;;
4674;SDS011;2351;50.812;12.872;2022-08-03T11:54:01;1.70;;;1.60;;
4674;SDS011;2351;50.812;12.872;2022-08-03T11:56:44;1.60;;;1.50;;
4674;SDS011;2351;50.812;12.872;2022-08-03T11:59:16;2.00;;;1.80;;
4674;SDS011;2351;50.812;12.872;2022-08-03T12:01:48;1.53;;;1.43;;
4674;SDS011;2351;50.812;12.872;2022-08-03T12:04:21;3.33;;;1.40;;
4674;SDS011;2351;50.812;12.872;2022-08-03T12:06:59;3.30;;;1.80;;
4674;SDS011;2351;50.812;12.872;2022-08-03T12:09:31;2.60;;;1.60;;
4674;SDS011;2351;50.812;12.872;2022-08-03T12:12:05;3.33;;;1.27;;
4674;SDS011;2351;50.812;12.872;2022-08-03T12:14:37;1.80;;;1.57;;
4674;SDS011;2351;50.812;12.872;2022-08-03T12:17:08;22.03;;;1.60;;
4674;SDS011;2351;50.812;12.872;2022-08-03T12:19:42;1.63;;;1.40;;
4674;SDS011;2351;50.812;12.872;2022-08-03T12:22:13;1.93;;;1.80;;
4674;SDS011;2351;50.812;12.872;2022-08-03T12:24:46;3.03;;;1.67;;
4674;SDS011;2351;50.812;12.872;2022-08-03T12:27:23;1.20;;;1.20;;
4674;SDS011;2351;50.812;12.872;2022-08-03T12:29:59;1.97;;;1.63;;
4674;SDS011;2351;50.812;12.872;2022-08-03T12:32:31;1.60;;;1.50;;
4674;SDS011;2351;50.812;12.872;2022-08-03T12:35:04;2.07;;;1.70;;
4674;SDS011;2351;50.812;12.872;2022-08-03T12:37:36;6.20;;;1.20;;
4674;SDS011;2351;50.812;12.872;2022-08-03T12:40:09;1.80;;;1.70;;
4674;SDS011;2351;50.812;12.872;2022-08-03T12:42:43;1.60;;;1.50;;
4674;SDS011;2351;50.812;12.872;2022-08-03T12:45:17;2.53;;;1.67;;
4674;SDS011;2351;50.812;12.872;2022-08-03T12:47:51;2.00;;;1.80;;
4674;SDS011;2351;50.812;12.872;2022-08-03T12:50:27;3.57;;;2.17;;
4674;SDS011;2351;50.812;12.872;2022-08-03T12:53:00;3.03;;;1.63;;
4674;SDS011;2351;50.812;12.872;2022-08-03T12:55:34;1.57;;;1.47;;
4674;SDS011;2351;50.812;12.872;2022-08-03T12:58:06;1.80;;;1.70;;
4674;SDS011;2351;50.812;12.872;2022-08-03T13:00:39;1.60;;;1.37;;
4674;SDS011;2351;50.812;12.872;2022-08-03T13:03:11;1.87;;;1.77;;
4674;SDS011;2351;50.812;12.872;2022-08-03T13:05:44;2.10;;;1.50;;
4674;SDS011;2351;50.812;12.872;2022-08-03T13:08:17;4.23;;;2.00;;
4674;SDS011;2351;50.812;12.872;2022-08-03T13:10:49;1.47;;;1.37;;
4674;SDS011;2351;50.812;12.872;2022-08-03T13:13:36;1.93;;;1.83;;
4674;SDS011;2351;50.812;12.872;2022-08-03T13:16:08;1.50;;;1.40;;
4674;SDS011;2351;50.812;12.872;2022-08-03T13:18:39;1.93;;;1.83;;
4674;SDS011;2351;50.812;12.872;2022-08-03T13:21:13;1.87;;;1.77;;
4674;SDS011;2351;50.812;12.872;2022-08-03T13:23:45;1.57;;;1.47;;
4674;SDS011;2351;50.812;12.872;2022-08-03T13:26:17;1.63;;;1.50;;
4674;SDS011;2351;50.812;12.872;2022-08-03T13:28:49;9.37;;;1.80;;
4674;SDS011;2351;50.812;12.872;2022-08-03T13:31:20;1.77;;;1.67;;
4674;SDS011;2351;50.812;12.872;2022-08-03T13:33:52;2.00;;;1.90;;
4674;SDS011;2351;50.812;12.872;2022-08-03T13:36:25;4.50;;;1.73;;
4674;SDS011;2351;50.812;12.872;2022-08-03T13:38:56;1.63;;;1.53;;
4674;SDS011;2351;50.812;12.872;2022-08-03T13:41:28;1.73;;;1.63;;
4674;SDS011;2351;50.812;12.872;2022-08-03T13:43:59;1.47;;;1.47;;
4674;SDS011;2351;50.812;12.872;2022-08-03T13:46:31;1.40;;;1.40;;
4674;SDS011;2351;50.812;12.872;2022-08-03T13:49:03;1.70;;;1.60;;
4674;SDS011;2351;50.812;12.872;2022-08-03T13:51:36;1.50;;;1.40;;
4674;SDS011;2351;50.812;12.872;2022-08-03T13:54:08;1.80;;;1.70;;
4674;SDS011;2351;50.812;12.872;2022-08-03T13:56:39;1.43;;;1.40;;
4674;SDS011;2351;50.812;12.872;2022-08-03T13:59:11;3.70;;;1.87;;
4674;SDS011;2351;50.812;12.872;2022-08-03T14:01:42;1.63;;;1.53;;
4674;SDS011;2351;50.812;12.872;2022-08-03T14:04:14;2.20;;;1.90;;
4674;SDS011;2351;50.812;12.872;2022-08-03T14:06:47;1.57;;;1.57;;
4674;SDS011;2351;50.812;12.872;2022-08-03T14:09:19;4.77;;;1.60;;
4674;SDS011;2351;50.812;12.872;2022-08-03T14:11:50;1.90;;;1.80;;
4674;SDS011;2351;50.812;12.872;2022-08-03T14:14:22;1.70;;;1.60;;
4674;SDS011;2351;50.812;12.872;2022-08-03T14:16:53;3.50;;;2.10;;
4674;SDS011;2351;50.812;12.872;2022-08-03T14:19:25;1.10;;;1.10;;
4674;SDS011;2351;50.812;12.872;2022-08-03T14:21:58;1.60;;;1.50;;
4674;SDS011;2351;50.812;12.872;2022-08-03T14:24:30;1.70;;;1.60;;
4674;SDS011;2351;50.812;12.872;2022-08-03T14:27:01;1.70;;;1.60;;
4674;SDS011;2351;50.812;12.872;2022-08-03T14:29:33;10.53;;;1.80;;
4674;SDS011;2351;50.812;12.872;2022-08-03T14:32:04;1.70;;;1.60;;
4674;SDS011;2351;50.812;12.872;2022-08-03T14:34:36;2.00;;;1.90;;
4674;SDS011;2351;50.812;12.872;2022-08-03T14:37:09;1.90;;;1.80;;
4674;SDS011;2351;50.812;12.872;2022-08-03T14:39:41;1.70;;;1.60;;
4674;SDS011;2351;50.812;12.872;2022-08-03T14:42:12;1.53;;;1.43;;
4674;SDS011;2351;50.812;12.872;2022-08-03T14:44:44;1.93;;;1.83;;
4674;SDS011;2351;50.812;12.872;2022-08-03T14:47:16;1.93;;;1.83;;
4674;SDS011;2351;50.812;12.872;2022-08-03T14:49:47;3.27;;;1.70;;
4674;SDS011;2351;50.812;12.872;2022-08-03T14:52:20;1.90;;;1.80;;
4674;SDS011;2351;50.812;12.872;2022-08-03T14:54:52;1.87;;;1.40;;
4674;SDS011;2351;50.812;12.872;2022-08-03T14:57:23;1.90;;;1.70;;
4674;SDS011;2351;50.812;12.872;2022-08-03T14:59:55;1.83;;;1.77;;
4674;SDS011;2351;50.812;12.872;2022-08-03T15:02:27;1.93;;;1.83;;
4674;SDS011;2351;50.812;12.872;2022-08-03T15:04:59;1.87;;;1.77;;
4674;SDS011;2351;50.812;12.872;2022-08-03T15:07:32;1.60;;;1.30;;
4674;SDS011;2351;50.812;12.872;2022-08-03T15:10:03;1.60;;;1.23;;
4674;SDS011;2351;50.812;12.872;2022-08-03T15:12:35;1.60;;;1.50;;
4674;SDS011;2351;50.812;12.872;2022-08-03T15:15:07;2.33;;;1.57;;
4674;SDS011;2351;50.812;12.872;2022-08-03T15:17:39;1.90;;;1.80;;
4674;SDS011;2351;50.812;12.872;2022-08-03T15:20:11;1.83;;;1.73;;
4674;SDS011;2351;50.812;12.872;2022-08-03T15:22:44;3.87;;;1.73;;
4674;SDS011;2351;50.812;12.872;2022-08-03T15:25:15;1.70;;;1.60;;
4674;SDS011;2351;50.812;12.872;2022-08-03T15:27:47;1.60;;;1.50;;
4674;SDS011;2351;50.812;12.872;2022-08-03T15:30:18;1.37;;;1.30;;
4674;SDS011;2351;50.812;12.872;2022-08-03T15:32:50;1.70;;;1.60;;
4674;SDS011;2351;50.812;12.872;2022-08-03T15:35:22;2.60;;;2.07;;
4674;SDS011;2351;50.812;12.872;2022-08-03T15:37:55;2.00;;;1.90;;
4674;SDS011;2351;50.812;12.872;2022-08-03T15:40:26;1.60;;;1.50;;
4674;SDS011;2351;50.812;12.872;2022-08-03T15:42:58;1.70;;;1.60;;
4674;SDS011;2351;50.812;12.872;2022-08-03T15:45:30;4.40;;;1.67;;
4674;SDS011;2351;50.812;12.872;2022-08-03T15:48:02;1.90;;;1.80;;
4674;SDS011;2351;50.812;12.872;2022-08-03T15:50:34;1.97;;;1.43;;